Terminal Aerodrome Forecast
Issued by NWS Wilmington, OH

Home | Current Version | Previous Version | Text Only | Print | Product List | Glossary On
Versions: 1 2 3 4 5 6 7 8 9 10 11 12 13 14 15 16 17 18 19 20 21 22 23 24 25 26 27 28 29 30 31 32
906
FTUS41 KILN 271455 AAA
TAFCVG
TAF AMD
KCVG 271455Z 2715/2818 23010KT P6SM SKC
     FM271700 24012G20KT P6SM FEW060 SCT250
     FM272300 22006KT P6SM FEW060 SCT250
     FM280900 19005KT P6SM FEW060 BKN200
     FM281400 20008KT P6SM VCSH BKN060=

USA.gov is the U.S. government's official web portal to all federal, state and local government web resources and services.